• Join FlightAware (Why Join?)
  • Login
  • US Flag 
06:16PM EDT


 

Airport Tracker/Info


-or-


 

Live Flight TrackerFlight Track Log ✈ NKS875 ✈ 16-Jul-2013 ✈ KDFW - KPDX

Flight Track Log - Related Links

Times and Time Zones

All times are in EDT time to prevent confusion due to time zone crossing. See the NKS875 flight status page for this flight to view local times or setup timezone preferences in your user account.

Time Position Orientation Groundspeed Altitude Reporting Facility
EDT Latitude Longitude Course Direction KTS MPH feet Rate Location/Type
04:01PM 32.8520 -97.0580 192° South 194 223 2,000  Level FlightAware
04:01PM 32.8180 -97.0670 193° South 233 268 3,000 2,220 Climbing FlightAware
04:02PM 32.7760 -97.0820 197° South 268 308 4,700 3,000 Climbing FlightAware
04:02PM 32.7660 -97.0940 225° Southwest 278 320 5,400 3,600 Climbing FlightAware
04:02PM 32.7560 -97.1200 245° Southwest 285 328 6,500 3,240 Climbing FlightAware
04:03PM 32.7440 -97.1540 247° West 291 335 7,700 2,700 Climbing FlightAware
04:04PM 32.7580 -97.2270 283° West 312 359 9,700 2,340 Climbing FlightAware
04:04PM 32.7730 -97.2370 331° Northwest 310 357 10,100 2,100 Climbing FlightAware
04:05PM 32.8410 -97.2420 356° North 332 382 11,800 1,800 Climbing FlightAware
04:05PM 32.9000 -97.2440 358° North 370 426 12,500 1,800 Climbing FlightAware
04:06PM 33.0050 -97.2450 360° North 393 452 14,700 2,280 Climbing FlightAware
04:07PM 33.0800 -97.2460 359° North 400 460 16,300 1,440 Climbing FlightAware
04:08PM 33.1630 -97.2470 359° North 405 466 16,800 300 Climbing FlightAware
04:08PM 33.2360 -97.2470 360° North 407 468 16,800 120 Level FlightAware
04:09PM 33.3260 -97.2480 359° North 409 471 17,000 1,200 Climbing FlightAware
04:10PM 33.4030 -97.2490 359° North 410 472 18,600 2,040 Climbing FlightAware
04:10PM 33.4760 -97.2490 360° North 419 482 19,700 1,080 Climbing FlightAware
04:11PM 33.5180 -97.2640 343° North 421 484 20,000 1,140 Climbing FlightAware
04:12PM 33.6600 -97.3580 331° Northwest 431 496 21,800 1,860 Climbing FlightAware
04:13PM 33.7290 -97.4020 332° Northwest 426 490 23,300 1,860 Climbing FlightAware
04:14PM 33.8380 -97.4700 333° Northwest 435 501 24,900 1,500 Climbing FlightAware
04:14PM 33.9100 -97.5160 332° Northwest 439 505 25,900 1,380 Climbing FlightAware
04:15PM 34.0080 -97.5780 332° Northwest 444 511 27,100 1,260 Climbing FlightAware
04:16PM 34.0770 -97.6220 332° Northwest 452 520 27,900 1,320 Climbing FlightAware
04:17PM 34.1590 -97.6740 332° Northwest 458 527 28,900 1,560 Climbing FlightAware
04:17PM 34.2320 -97.7190 333° Northwest 454 522 30,100 1,680 Climbing FlightAware
04:18PM 34.3130 -97.7710 332° Northwest 449 517 31,300 1,560 Climbing FlightAware
04:19PM 34.3920 -97.8210 332° Northwest 445 512 32,400 1,380 Climbing FlightAware
04:19PM 34.4610 -97.8650 332° Northwest 446 513 33,200 780 Climbing FlightAware
04:20PM 34.5450 -97.9190 332° Northwest 460 529 33,500 660 Climbing FlightAware
04:21PM 34.6340 -97.9760 332° Northwest 463 533 34,300 720 Climbing FlightAware
04:22PM 34.7320 -98.0390 332° Northwest 464 534 34,800 1,020 Climbing FlightAware
04:23PM 34.8190 -98.1060 328° Northwest 463 533 36,000 900 Climbing FlightAware
04:23PM 34.8700 -98.1610 319° Northwest 468 539 36,000  Level FlightAware
04:24PM 34.9360 -98.2530 311° West 466 536 36,000  Level FlightAware
04:25PM 34.9790 -98.3200 308° West 466 536 36,000  Level FlightAware
04:25PM 35.0600 -98.4430 309° West 462 532 36,000  Level FlightAware
04:26PM 35.1100 -98.5200 308° West 462 532 36,000  Level FlightAware
04:27PM 35.1770 -98.6220 309° West 461 531 36,000  Level FlightAware
04:28PM 35.2310 -98.7080 308° West 461 531 36,000  Level FlightAware
04:28PM 35.2810 -98.8220 298° West 462 532 36,000  Level FlightAware
04:29PM 35.3070 -98.9000 292° West 462 532 36,000  Level FlightAware
04:30PM 35.3640 -99.0730 292° West 462 532 36,000  Level FlightAware
04:31PM 35.3880 -99.1480 291° West 462 532 36,000  Level FlightAware
04:32PM 35.4390 -99.3010 292° West 462 532 36,000  Level FlightAware
04:33PM 35.4700 -99.3960 292° West 462 532 36,000  Level FlightAware
04:34PM 35.5110 -99.5200 292° West 462 532 36,000  Level FlightAware
04:35PM 35.5440 -99.6190 292° West 462 532 36,000  Level FlightAware
04:36PM 35.5690 -99.6980 291° West 462 532 36,000  Level FlightAware
04:36PM 35.6010 -99.7930 293° West 462 532 36,000  Level FlightAware
04:37PM 35.6250 -99.8680 292° West 462 532 36,000  Level FlightAware
04:38PM 35.6580 -99.9670 292° West 462 532 36,000  Level FlightAware
04:38PM 35.6830 -100.0440 292° West 462 532 36,000  Level FlightAware
04:39PM 36.0719 -100.1850 292° West 480 552 36,000  Level Denver Center
04:40PM 36.1842 -100.3764 306° West 487 560 36,000  Level Kansas City Center
04:41PM 36.2664 -100.5142 307° West 493 567 36,100  Climbing Kansas City Center
04:43PM 36.3469 -100.6542 306° West 496 571 36,000 -60 Descending Kansas City Center
04:44PM 36.4414 -100.8192 305° West 498 573 36,000  Level Kansas City Center
04:45PM 36.5192 -100.9531 306° West 498 573 36,000  Level Kansas City Center
04:46PM 36.6089 -101.1083 306° West 496 571 36,000  Level Kansas City Center
04:47PM 36.6856 -101.2422 306° West 495 570 36,000  Level Kansas City Center
04:48PM 36.7750 -101.4011 305° West 497 572 36,000  Level Kansas City Center
04:49PM 36.8525 -101.5364 306° West 498 573 36,000  Level Kansas City Center
04:50PM 36.9292 -101.6728 305° West 499 574 36,000  Level Kansas City Center
04:56PM 37.4340 -102.5790 305° West 503 579 36,000  Level FlightAware ADS-B
04:56PM 37.4742 -102.6520 305° West 502 578 36,000  Level FlightAware ADS-B
04:57PM 37.5141 -102.7250 305° West 502 578 36,000  Level FlightAware ADS-B
04:57PM 37.5536 -102.7980 304° West 501 577 36,000  Level FlightAware ADS-B
04:58PM 37.5934 -102.8710 305° West 500 575 36,000  Level FlightAware ADS-B
04:58PM 37.6328 -102.9430 305° West 499 574 36,000  Level FlightAware ADS-B
04:59PM 37.6722 -103.0160 304° West 499 574 36,000  Level FlightAware ADS-B
04:59PM 37.7115 -103.0880 305° West 498 573 36,000  Level FlightAware ADS-B
05:00PM 37.7529 -103.1640 305° West 496 571 36,000  Level FlightAware ADS-B
05:00PM 37.7946 -103.2420 304° West 496 571 36,000  Level FlightAware ADS-B
05:01PM 37.8332 -103.3140 304° West 494 568 36,000  Level FlightAware ADS-B
05:02PM 37.8729 -103.3880 304° West 491 565 36,000 60 Level FlightAware ADS-B
05:02PM 37.9113 -103.4600 304° West 485 558 36,100 60 Climbing FlightAware ADS-B
05:03PM 37.9488 -103.5300 304° West 480 552 36,100 -120 Level FlightAware ADS-B
05:03PM 37.9859 -103.6000 304° West 477 549 36,000 -240 Descending FlightAware ADS-B
05:03PM 38.0158 -103.6560 304° West 476 548 35,900  Descending FlightAware ADS-B
05:04PM 38.0526 -103.7260 304° West 475 547 36,000 60 Climbing FlightAware ADS-B
05:04PM 38.0893 -103.7950 304° West 473 544 36,000  Level FlightAware ADS-B
05:05PM 38.1266 -103.8660 304° West 472 543 36,000  Level FlightAware ADS-B
05:05PM 38.1634 -103.9350 304° West 472 543 36,000  Level FlightAware ADS-B
05:06PM 38.2012 -104.0060 304° West 473 544 36,000  Level FlightAware ADS-B
05:06PM 38.2385 -104.0780 303° West 475 547 36,000  Level FlightAware ADS-B
05:07PM 38.2754 -104.1480 304° West 475 547 36,000  Level FlightAware ADS-B
05:07PM 38.3124 -104.2190 304° West 475 547 36,000 60 Level FlightAware ADS-B
05:08PM 38.3488 -104.2890 304° West 474 545 36,100  Climbing FlightAware ADS-B
05:09PM 38.3860 -104.3600 304° West 473 544 36,000 -120 Descending FlightAware ADS-B
05:09PM 38.4223 -104.4300 304° West 474 545 36,000  Level FlightAware ADS-B
05:10PM 38.4685 -104.5190 304° West 475 547 36,000  Level FlightAware ADS-B
05:10PM 38.5072 -104.5940 303° West 476 548 36,000  Level FlightAware ADS-B
05:11PM 38.5446 -104.6660 304° West 478 550 36,000  Level FlightAware ADS-B
05:11PM 38.5812 -104.7380 303° West 480 552 36,000  Level FlightAware ADS-B
05:12PM 38.6221 -104.8170 304° West 480 552 36,000  Level FlightAware ADS-B
05:12PM 38.6619 -104.8950 303° West 478 550 36,000  Level FlightAware ADS-B
05:13PM 38.6985 -104.9660 303° West 474 545 36,000  Level FlightAware ADS-B
05:13PM 38.7345 -105.0380 303° West 456 525 36,000  Level FlightAware ADS-B
05:14PM 38.7691 -105.1060 303° West 453 521 36,000  Level FlightAware ADS-B
05:14PM 38.8039 -105.1740 303° West 453 521 36,000  Level FlightAware ADS-B
05:15PM 38.8383 -105.2420 303° West 453 521 36,000  Level FlightAware ADS-B
05:15PM 38.8732 -105.3110 303° West 457 526 36,000  Level FlightAware ADS-B
05:16PM 38.9086 -105.3810 303° West 457 526 36,000  Level FlightAware ADS-B
05:16PM 38.9438 -105.4510 303° West 459 528 36,000  Level FlightAware ADS-B
05:17PM 38.9795 -105.5220 303° West 460 529 36,000  Level FlightAware ADS-B
05:17PM 39.0144 -105.5920 303° West 461 531 36,000  Level FlightAware ADS-B
05:18PM 39.0503 -105.6630 303° West 462 532 36,000  Level FlightAware ADS-B
05:18PM 39.0874 -105.7380 303° West 462 532 36,000  Level FlightAware ADS-B
05:19PM 39.1225 -105.8080 303° West 462 532 36,000  Level FlightAware ADS-B
05:19PM 39.1590 -105.8820 302° West 462 532 36,000  Level FlightAware ADS-B
05:20PM 39.1951 -105.9550 303° West 462 532 36,000  Level FlightAware ADS-B
05:21PM 39.2301 -106.0260 302° West 458 527 36,000  Level FlightAware ADS-B
05:21PM 39.2665 -106.0990 303° West 456 525 36,000  Level FlightAware ADS-B
05:22PM 39.3004 -106.1680 302° West 454 522 36,000  Level FlightAware ADS-B
05:22PM 39.3344 -106.2380 302° West 452 520 36,000  Level FlightAware ADS-B
05:23PM 39.3681 -106.3070 302° West 450 518 36,000  Level FlightAware ADS-B
05:23PM 39.4017 -106.3750 303° West 449 517 36,000  Level FlightAware ADS-B
05:24PM 39.4351 -106.4440 302° West 449 517 36,000  Level FlightAware ADS-B
05:24PM 39.4705 -106.5170 302° West 446 513 36,000  Level FlightAware ADS-B
05:25PM 39.5043 -106.5860 302° West 445 512 36,000  Level FlightAware ADS-B
05:25PM 39.5393 -106.6580 302° West 443 510 36,000  Level FlightAware ADS-B
05:26PM 39.5727 -106.7270 302° West 443 510 36,000  Level FlightAware ADS-B
05:26PM 39.6088 -106.8020 302° West 443 510 36,000  Level FlightAware ADS-B
05:27PM 39.6419 -106.8710 302° West 451 519 36,000  Level FlightAware ADS-B
05:27PM 39.6754 -106.9410 302° West 452 520 36,000  Level FlightAware ADS-B
05:28PM 39.7092 -107.0110 302° West 450 518 36,000  Level FlightAware ADS-B
05:28PM 39.7426 -107.0810 302° West 445 512 36,000  Level FlightAware ADS-B
05:29PM 39.7758 -107.1510 302° West 441 507 36,000  Level FlightAware ADS-B
05:29PM 39.8112 -107.2260 302° West 437 503 36,000 -120 Level FlightAware ADS-B
05:30PM 39.8435 -107.2940 302° West 438 504 35,900  Descending FlightAware ADS-B
05:30PM 39.8768 -107.3640 302° West 440 506 36,000 60 Climbing FlightAware ADS-B
05:31PM 39.9281 -107.4720 302° West 440 506 36,000  Level FlightAware ADS-B
05:33PM 39.9870 -107.6090 299° West 438 504 36,000  Level FlightAware
05:34PM 40.0690 -107.7740 303° West 443 510 36,000  Level FlightAware
05:34PM 40.1120 -107.8660 301° West 442 509 36,000  Level FlightAware
05:35PM 40.1710 -107.9920 302° West 442 509 36,000  Level FlightAware
05:36PM 40.2280 -108.1160 301° West 443 510 36,000  Level FlightAware
05:37PM 40.2840 -108.2360 301° West 443 510 36,000  Level FlightAware
05:37PM 40.3300 -108.3360 301° West 441 507 36,000  Level FlightAware
05:38PM 40.3740 -108.4320 301° West 440 506 36,000  Level FlightAware
05:39PM 40.4160 -108.5240 301° West 438 504 36,000  Level FlightAware
05:39PM 40.4520 -108.6050 300° West 438 504 36,000  Level FlightAware
05:40PM 40.4980 -108.7050 301° West 438 504 36,000  Level FlightAware
05:41PM 40.5350 -108.7880 300° West 438 504 36,000  Level FlightAware
05:41PM 40.5770 -108.8800 301° West 440 506 36,000  Level FlightAware
05:42PM 40.6220 -108.9810 300° West 440 506 36,000  Level FlightAware
05:43PM 40.6590 -109.0640 300° West 440 506 36,000  Level FlightAware
05:44PM 40.7050 -109.1650 301° West 440 506 36,000  Level FlightAware
05:44PM 40.7690 -109.2480 316° Northwest 443 510 36,000  Level FlightAware
05:45PM 40.8420 -109.3170 324° Northwest 444 511 36,000  Level FlightAware
05:46PM 40.9120 -109.3830 325° Northwest 444 511 36,000  Level FlightAware
05:46PM 40.9690 -109.4370 324° Northwest 444 511 36,000  Level FlightAware
05:47PM 41.0390 -109.5040 324° Northwest 444 511 36,000  Level FlightAware
05:48PM 41.1090 -109.5730 323° Northwest 444 511 36,000  Level FlightAware
05:48PM 41.1610 -109.6410 315° West 444 511 36,000  Level FlightAware
05:49PM 41.2180 -109.7200 314° West 445 512 36,000  Level FlightAware
05:50PM 41.2760 -109.7980 315° West 445 512 36,000  Level FlightAware
05:50PM 41.3380 -109.8850 314° West 443 510 36,000  Level FlightAware
05:51PM 41.3870 -109.9790 305° West 441 507 36,000  Level FlightAware
05:52PM 41.4300 -110.0710 302° West 439 505 36,000  Level FlightAware
05:53PM 41.4840 -110.1880 302° West 439 505 36,000  Level FlightAware
05:53PM 41.5160 -110.2590 301° West 439 505 36,000  Level FlightAware
05:54PM 41.5740 -110.3780 303° West 436 502 36,000  Level FlightAware
05:55PM 41.6080 -110.4690 297° West 435 501 36,000  Level FlightAware
05:55PM 41.6410 -110.5590 296° West 436 502 36,000  Level FlightAware
05:56PM 41.6680 -110.6350 295° West 436 502 36,000  Level FlightAware
05:57PM 41.7050 -110.7360 296° West 436 502 36,000  Level FlightAware
05:57PM 41.7320 -110.8110 296° West 436 502 36,000  Level FlightAware
05:58PM 41.7780 -110.9370 296° West 436 502 36,000  Level FlightAware
05:59PM 41.8500 -111.1010 301° West 442 509 36,000  Level FlightAware
06:00PM 41.8920 -111.2080 298° West 443 510 36,000  Level FlightAware
06:00PM 41.9250 -111.2910 298° West 444 511 36,000  Level FlightAware
06:01PM 41.9620 -111.3840 298° West 445 512 36,000  Level FlightAware
06:02PM 42.0040 -111.4980 296° West 443 510 36,000  Level FlightAware
06:02PM 42.0450 -111.6150 295° West 441 507 36,000  Level FlightAware
06:03PM 42.0810 -111.7180 295° West 439 505 36,000  Level FlightAware
06:04PM 42.1300 -111.8570 295° West 438 504 36,000  Level FlightAware
06:05PM 42.1680 -111.9630 296° West 441 507 36,000  Level FlightAware
06:06PM 42.2040 -112.0640 296° West 442 509 36,000 420 Level FlightAware
06:06PM 42.2410 -112.1630 297° West 439 505 36,600 360 Climbing FlightAware
06:07PM 42.2790 -112.2670 296° West 439 505 36,600  Level FlightAware
06:08PM 42.3060 -112.3430 296° West 439 505 36,600 1,080 Level FlightAware
06:08PM 42.3490 -112.4620 296° West 436 502 38,000 1,020 Climbing FlightAware
06:09PM 42.3790 -112.5450 296° West 436 502 38,000  Level FlightAware
06:10PM 42.4160 -112.6470 296° West 436 502 38,000  Level FlightAware
06:10PM 42.4700 -112.7930 297° West 434 499 38,000  Level FlightAware
06:11PM 42.5030 -112.8650 302° West 439 505 38,000  Level FlightAware
06:12PM 42.5770 -112.9900 309° West 438 504 38,000  Level FlightAware
06:13PM 42.6320 -113.0740 312° West 443 510 38,000  Level FlightAware
06:13PM 42.6850 -113.1460 315° West 442 509 38,000  Level FlightAware
06:14PM 42.7480 -113.2330 315° West 445 512 38,000  Level FlightAware
06:15PM 42.8590 -113.3870 315° West 451 519 38,000  Level FlightAware
06:17PM 42.9830 -113.5560 315° West 455 524 38,000  Level FlightAware
06:18PM 43.0670 -113.6920 310° West 440 506 38,100 60 Climbing FlightAware
06:18PM 43.0990 -113.8000 292° West 431 496 38,100 -120 Level FlightAware
06:19PM 43.1290 -113.9120 290° West 431 496 38,000 -120 Descending FlightAware
06:20PM 43.1610 -114.0270 291° West 432 497 38,000  Level FlightAware
06:20PM 43.1890 -114.1290 291° West 435 501 38,000  Level FlightAware
06:21PM 43.2170 -114.2330 290° West 435 501 38,000  Level FlightAware
06:22PM 43.2470 -114.3460 290° West 437 503 38,000  Level FlightAware
06:23PM 43.2760 -114.4490 291° West 436 502 38,000  Level FlightAware
06:23PM 43.3090 -114.5680 291° West 436 502 38,000  Level FlightAware
06:24PM 43.3380 -114.6700 291° West 434 499 38,000  Level FlightAware
06:25PM 43.3670 -114.7740 291° West 434 499 38,000  Level FlightAware
06:25PM 43.3990 -114.8860 291° West 435 501 38,000  Level FlightAware
06:26PM 43.4250 -114.9790 291° West 438 504 38,000  Level FlightAware
06:27PM 43.4530 -115.0720 293° West 440 506 38,000  Level FlightAware
06:27PM 43.4850 -115.1820 292° West 438 504 38,000  Level FlightAware
06:28PM 43.5190 -115.3010 292° West 439 505 38,000  Level FlightAware
06:29PM 43.5500 -115.4090 292° West 439 505 38,000  Level FlightAware
06:29PM 43.5800 -115.5130 292° West 438 504 38,000  Level FlightAware
06:30PM 43.6130 -115.6290 291° West 438 504 38,000  Level FlightAware
06:31PM 43.6420 -115.7310 291° West 436 502 38,000  Level FlightAware
06:31PM 43.6680 -115.8240 291° West 431 496 38,000  Level FlightAware
06:32PM 43.6970 -115.9370 290° West 434 499 38,000  Level FlightAware
06:33PM 43.7250 -116.0440 290° West 434 499 38,000  Level FlightAware
06:33PM 43.7490 -116.1360 290° West 436 502 38,000  Level FlightAware
06:34PM 43.7790 -116.2520 290° West 439 505 38,000  Level FlightAware
06:35PM 43.8090 -116.3580 291° West 441 507 38,000  Level FlightAware
06:36PM 43.8420 -116.4770 291° West 439 505 38,000  Level FlightAware
06:36PM 43.8680 -116.5770 290° West 441 507 38,000  Level FlightAware
06:37PM 43.8990 -116.6940 290° West 441 507 38,000  Level FlightAware
06:38PM 43.9280 -116.8040 290° West 442 509 38,000  Level FlightAware
06:38PM 43.9530 -116.9000 290° West 441 507 38,000  Level FlightAware
06:39PM 43.9840 -117.0160 290° West 442 509 38,000  Level FlightAware
06:40PM 44.0110 -117.1200 290° West 439 505 38,000  Level FlightAware
06:40PM 44.0350 -117.2120 290° West 438 504 38,000  Level FlightAware
06:41PM 44.0640 -117.3240 290° West 438 504 38,000  Level FlightAware
06:42PM 44.0940 -117.4410 290° West 441 507 38,000  Level FlightAware
06:42PM 44.1160 -117.5280 289° West 441 507 38,000  Level FlightAware
06:43PM 44.1460 -117.6450 290° West 441 507 38,000  Level FlightAware
06:44PM 44.1730 -117.7510 290° West 437 503 38,000  Level FlightAware
06:44PM 44.2030 -117.8680 290° West 437 503 38,000  Level FlightAware
06:45PM 44.2290 -117.9740 289° West 438 504 38,000  Level FlightAware
06:46PM 44.2590 -118.0950 289° West 443 510 38,000  Level FlightAware
06:46PM 44.2870 -118.2050 290° West 444 511 38,000 60 Level FlightAware
06:47PM 44.3080 -118.2890 289° West 445 512 38,100 60 Climbing FlightAware
06:48PM 44.3390 -118.4150 289° West 444 511 38,100  Level FlightAware
06:48PM 44.3650 -118.5220 289° West 441 507 38,100 -120 Level FlightAware
06:49PM 44.3940 -118.6420 289° West 443 510 38,000 -180 Descending FlightAware
06:50PM 44.4300 -118.7400 297° West 457 526 37,900  Descending FlightAware
06:50PM 44.4780 -118.8510 301° West 456 525 38,000 60 Climbing FlightAware
06:51PM 44.5250 -118.9630 301° West 457 526 38,000  Level FlightAware
06:52PM 44.5700 -119.0680 301° West 457 526 38,000  Level FlightAware
06:53PM 44.6130 -119.1710 300° West 457 526 38,000  Level FlightAware
06:53PM 44.6600 -119.2840 300° West 460 529 38,000  Level FlightAware
06:54PM 44.7050 -119.3900 301° West 460 529 38,000  Level FlightAware
06:55PM 44.7480 -119.4950 300° West 462 532 38,000  Level FlightAware
06:55PM 44.7960 -119.6080 301° West 462 532 38,000  Level FlightAware
06:56PM 44.8380 -119.7110 300° West 465 535 38,000  Level FlightAware
06:57PM 44.8720 -119.7920 301° West 465 535 38,000  Level FlightAware
06:57PM 44.9130 -119.8920 300° West 466 536 38,000 -300 Level FlightAware
06:58PM 44.9620 -120.0130 300° West 468 539 37,600 -1,320 Descending FlightAware
06:59PM 45.0050 -120.1180 300° West 465 535 36,200 -2,340 Descending FlightAware
06:59PM 45.0430 -120.2120 300° West 464 534 34,700 -2,520 Descending FlightAware
07:00PM 45.0830 -120.3120 300° West 465 535 33,100 -1,260 Descending FlightAware
07:01PM 45.1190 -120.4030 299° West 465 535 33,100  Level FlightAware
07:01PM 45.1620 -120.5140 299° West 465 535 33,100  Level FlightAware
07:02PM 45.1930 -120.5930 299° West 465 535 33,100  Level FlightAware
07:03PM 45.2360 -120.7020 299° West 465 535 33,100  Level FlightAware
07:03PM 45.2680 -120.7860 298° West 465 535 33,100  Level FlightAware
07:04PM 45.3110 -120.8950 299° West 465 535 33,100 -8,700 Level FlightAware
07:05PM 45.3729 -121.0560 299° West 413 475 21,500 -10,440 Descending FlightAware ADS-B
07:05PM 45.4143 -121.1660 298° West 412 474 19,600 -2,460 Descending FlightAware ADS-B
07:06PM 45.4310 -121.2160 295° West 408 470 18,800 -2,220 Descending FlightAware ADS-B
07:07PM 45.4467 -121.3300 295° West 402 463 17,000 -2,040 Descending Seattle Center
07:08PM 45.4506 -121.4797 272° West 383 441 15,000 -1,500 Descending Seattle Center
07:09PM 45.4642 -121.6206 278° West 368 423 14,000 -1,080 Descending Seattle Center
07:10PM 45.5172 -121.7414 302° West 364 419 12,900 -1,920 Descending Seattle Center
07:11PM 45.5361 -121.8719 282° West 358 412 10,200 -2,400 Descending Seattle Center
07:12PM 45.5350 -122.0078 269° West 310 357 8,100 -1,740 Descending Seattle Center
07:13PM 45.5322 -122.1217 268° West 294 338 6,700 -1,560 Descending Seattle Center
07:14PM 45.5328 -122.2364 270° West 291 335 5,000 -1,920 Descending Seattle Center
07:15PM 45.5244 -122.3611 265° West 276 318 2,700 -1,440 Descending Seattle Center
07:16PM 45.5358 -122.4428 281° West 257 296 2,100 -960 Descending Seattle Center
07:17PM 45.5619 -122.5094 299° West 216 249 900 -900 Descending Seattle Center
07:18PM 45.5833 -122.5656 299° West 184 212 300 -600 Descending Seattle Center